createdAt,value
2022-09-24T00:04:18.904Z,7.80
2022-09-24T00:09:23.812Z,7.75
2022-09-24T00:14:26.717Z,7.63
2022-09-24T00:19:30.245Z,7.76
2022-09-24T00:24:51.973Z,7.90
2022-09-24T00:29:54.919Z,7.80
2022-09-24T00:34:57.823Z,7.89
2022-09-24T00:40:02.464Z,7.69
2022-09-24T00:45:05.809Z,7.71
2022-09-24T00:50:18.033Z,7.76
2022-09-24T00:55:23.725Z,7.84
2022-09-24T01:00:27.799Z,7.82
2022-09-24T01:05:30.996Z,7.73
2022-09-24T01:10:49.092Z,7.61
2022-09-24T01:15:59.623Z,7.59
2022-09-24T01:21:22.801Z,7.47
2022-09-24T01:26:48.328Z,7.49
2022-09-24T01:32:02.563Z,7.69
2022-09-24T01:37:06.053Z,7.53
2022-09-24T01:42:11.198Z,7.48
2022-09-24T01:47:21.177Z,7.48
2022-09-24T01:52:28.775Z,7.32
2022-09-24T01:57:38.992Z,7.31
2022-09-24T02:02:48.234Z,7.35
2022-09-24T02:07:59.067Z,7.41
2022-09-24T02:13:06.829Z,7.40
2022-09-24T02:18:15.543Z,7.32
2022-09-24T02:23:20.259Z,7.20
2022-09-24T02:28:23.208Z,7.18
2022-09-24T02:33:47.924Z,7.19
2022-09-24T02:38:50.860Z,7.13
2022-09-24T02:43:54.095Z,7.03
2022-09-24T02:48:58.445Z,6.74
2022-09-24T02:54:01.851Z,6.85
2022-09-24T02:59:05.021Z,6.91
2022-09-24T03:04:09.473Z,6.88
2022-09-24T03:09:13.033Z,6.86
2022-09-24T03:14:16.021Z,6.88
2022-09-24T03:19:20.318Z,6.72
2022-09-24T03:24:23.453Z,6.79
2022-09-24T03:29:40.292Z,6.82
2022-09-24T03:34:44.552Z,6.96
2022-09-24T03:39:47.411Z,6.98
2022-09-24T03:44:50.567Z,7.03
2022-09-24T03:49:54.813Z,6.99
2022-09-24T03:54:57.737Z,6.66
2022-09-24T04:00:00.671Z,6.78
2022-09-24T04:05:05.380Z,6.55
2022-09-24T04:10:09.530Z,6.56
2022-09-24T04:15:12.952Z,6.63
2022-09-24T04:20:17.419Z,6.50
2022-09-24T04:25:21.328Z,6.59
2022-09-24T04:30:25.538Z,6.57
2022-09-24T04:35:32.162Z,6.58
2022-09-24T04:40:35.385Z,6.45
2022-09-24T04:45:38.465Z,6.47
2022-09-24T04:50:46.122Z,5.90
2022-09-24T04:55:49.469Z,6.14
2022-09-24T05:00:53.354Z,6.22
2022-09-24T05:05:57.737Z,6.20
2022-09-24T05:11:02.202Z,6.40
2022-09-24T05:16:05.231Z,6.59
2022-09-24T05:21:09.650Z,6.72
2022-09-24T05:26:30.222Z,6.88
2022-09-24T05:31:33.218Z,6.86
2022-09-24T05:36:37.568Z,6.93
2022-09-24T05:41:41.174Z,6.95
2022-09-24T05:46:44.165Z,6.75
2022-09-24T05:51:50.654Z,7.03
2022-09-24T05:56:53.612Z,7.25
2022-09-24T06:01:56.578Z,7.48
2022-09-24T06:07:00.889Z,7.67
2022-09-24T06:12:04.220Z,7.84
2022-09-24T06:17:07.129Z,8.00
2022-09-24T06:22:11.411Z,8.07
2022-09-24T06:27:14.320Z,8.45
2022-09-24T06:32:17.673Z,8.71
2022-09-24T06:37:22.495Z,9.18
2022-09-24T06:42:25.553Z,9.45
2022-09-24T06:47:30.150Z,8.75
2022-09-24T06:52:34.453Z,8.78
2022-09-24T06:57:37.402Z,9.91
2022-09-24T07:02:40.467Z,10.23
2022-09-24T07:07:44.857Z,10.15
2022-09-24T07:12:47.817Z,9.82
2022-09-24T07:17:55.617Z,10.54
2022-09-24T07:23:00.198Z,11.10
2022-09-24T07:28:04.919Z,11.55
2022-09-24T07:33:08.446Z,11.93
2022-09-24T07:38:13.350Z,12.28
2022-09-24T07:43:16.342Z,12.40
2022-09-24T07:48:19.328Z,12.45
2022-09-24T07:53:24.231Z,13.46
2022-09-24T07:58:27.186Z,12.57
2022-09-24T08:03:30.162Z,13.20
2022-09-24T08:08:34.584Z,13.78
2022-09-24T08:13:38.060Z,13.18
2022-09-24T08:18:41.388Z,13.36
2022-09-24T08:23:45.882Z,13.59
2022-09-24T08:28:51.886Z,13.89
2022-09-24T08:33:55.193Z,14.80
2022-09-24T08:38:59.469Z,15.50
2022-09-24T08:44:05.569Z,15.83
2022-09-24T08:49:12.914Z,16.70
2022-09-24T08:54:17.282Z,16.57
2022-09-24T08:59:28.502Z,16.96
2022-09-24T09:04:41.539Z,15.91
2022-09-24T09:09:51.146Z,15.83
2022-09-24T09:15:00.632Z,16.64
2022-09-24T09:20:08.568Z,17.42
2022-09-24T09:25:25.881Z,17.57
2022-09-24T09:30:43.503Z,17.17
2022-09-24T09:35:56.338Z,16.19
2022-09-24T09:41:07.807Z,15.98
2022-09-24T09:46:17.086Z,16.35
2022-09-24T09:51:23.025Z,16.60
2022-09-24T09:56:30.408Z,16.11
2022-09-24T10:01:36.191Z,16.54
2022-09-24T10:06:39.143Z,16.70
2022-09-24T10:11:43.756Z,17.48
2022-09-24T10:16:51.957Z,17.16
2022-09-24T10:21:59.120Z,17.25
2022-09-24T10:27:12.933Z,16.58
2022-09-24T10:32:21.431Z,17.78
2022-09-24T10:37:24.523Z,16.82
2022-09-24T10:42:31.138Z,16.88
2022-09-24T10:47:43.674Z,16.49
2022-09-24T10:52:52.393Z,16.99
2022-09-24T10:58:04.489Z,16.25
2022-09-24T11:03:38.778Z,17.20
2022-09-24T11:08:59.625Z,17.76
2022-09-24T11:14:19.244Z,17.03
2022-09-24T11:19:40.373Z,16.77
2022-09-24T11:25:00.802Z,17.92
2022-09-24T11:30:13.276Z,17.49
2022-09-24T11:35:40.215Z,17.48
2022-09-24T11:40:59.559Z,17.99
2022-09-24T11:46:15.678Z,18.35
2022-09-24T11:51:29.389Z,18.37
2022-09-24T11:56:36.458Z,18.57
2022-09-24T12:01:47.979Z,19.23
2022-09-24T12:06:56.047Z,17.97
2022-09-24T12:12:05.989Z,17.92
2022-09-24T12:17:17.883Z,18.46
2022-09-24T12:22:22.954Z,17.64
2022-09-24T12:27:34.549Z,17.83
2022-09-24T12:32:57.185Z,17.92
2022-09-24T12:38:04.940Z,18.01
2022-09-24T12:43:19.446Z,18.63
2022-09-24T12:48:26.615Z,17.63
2022-09-24T12:53:35.666Z,18.18
2022-09-24T12:58:41.549Z,17.09
2022-09-24T13:03:47.678Z,17.44
2022-09-24T13:08:51.566Z,17.63
2022-09-24T13:14:02.566Z,17.22
2022-09-24T13:19:24.870Z,17.05
2022-09-24T13:24:30.320Z,17.87
2022-09-24T13:29:39.541Z,17.56
2022-09-24T13:34:47.245Z,17.47
2022-09-24T13:39:57.312Z,17.87
2022-09-24T13:45:07.437Z,18.26
2022-09-24T13:50:19.101Z,17.59
2022-09-24T13:55:26.192Z,17.85
2022-09-24T14:00:31.417Z,17.84
2022-09-24T14:05:37.789Z,17.49
2022-09-24T14:10:41.261Z,17.57
2022-09-24T14:15:55.165Z,17.33
2022-09-24T14:21:06.261Z,18.03
2022-09-24T14:26:13.762Z,18.22
2022-09-24T14:31:17.020Z,18.33
2022-09-24T14:36:27.875Z,18.18
2022-09-24T14:41:33.315Z,18.32
2022-09-24T14:46:41.047Z,17.69
2022-09-24T14:51:52.932Z,18.15
2022-09-24T14:56:56.469Z,18.11
2022-09-24T15:02:17.400Z,18.10
2022-09-24T15:07:25.051Z,17.88
2022-09-24T15:12:31.811Z,17.52
2022-09-24T15:17:36.242Z,17.10
2022-09-24T15:22:40.597Z,17.08
2022-09-24T15:27:43.912Z,16.98
2022-09-24T15:32:47.424Z,16.84
2022-09-24T15:37:52.518Z,16.48
2022-09-24T15:42:55.438Z,16.50
2022-09-24T15:47:58.787Z,16.41
2022-09-24T15:53:03.764Z,16.41
2022-09-24T15:58:19.090Z,16.00
2022-09-24T16:03:26.009Z,16.08
2022-09-24T16:08:30.330Z,16.02
2022-09-24T16:13:35.188Z,15.89
2022-09-24T16:18:39.801Z,15.72
2022-09-24T16:23:44.284Z,15.04
2022-09-24T16:28:47.477Z,15.27
2022-09-24T16:33:50.437Z,15.29
2022-09-24T16:38:54.757Z,14.83
2022-09-24T16:43:58.711Z,14.99
2022-09-24T16:49:01.634Z,14.96
2022-09-24T16:54:06.686Z,14.90
2022-09-24T16:59:11.354Z,14.41
2022-09-24T17:04:14.305Z,13.77
2022-09-24T17:09:35.817Z,13.52
2022-09-24T17:14:39.316Z,13.50
2022-09-24T17:19:42.268Z,13.64
2022-09-24T17:24:46.538Z,13.81
2022-09-24T17:29:49.452Z,13.80
2022-09-24T17:34:52.388Z,13.73
2022-09-24T17:39:57.499Z,13.21
2022-09-24T17:45:00.559Z,13.29
2022-09-24T17:50:03.464Z,12.89
2022-09-24T17:55:08.823Z,12.49
2022-09-24T18:00:12.722Z,12.48
2022-09-24T18:05:15.720Z,12.57
2022-09-24T18:10:20.049Z,12.49
2022-09-24T18:15:23.027Z,12.62
2022-09-24T18:20:27.106Z,12.64
2022-09-24T18:25:31.580Z,12.69
2022-09-24T18:30:34.577Z,12.68
2022-09-24T18:35:37.561Z,12.66
2022-09-24T18:40:42.003Z,12.54
2022-09-24T18:45:45.161Z,12.45
2022-09-24T18:50:48.140Z,12.40
2022-09-24T18:55:52.665Z,12.18
2022-09-24T19:00:59.380Z,12.06
2022-09-24T19:06:04.641Z,12.10
2022-09-24T19:11:14.066Z,11.94
2022-09-24T19:16:18.334Z,11.93
2022-09-24T19:21:23.130Z,11.90
2022-09-24T19:26:30.101Z,11.82
2022-09-24T19:31:35.926Z,11.77
2022-09-24T19:36:43.854Z,11.65
2022-09-24T19:41:52.839Z,11.51
2022-09-24T19:46:55.885Z,11.52
2022-09-24T19:51:58.829Z,11.41
2022-09-24T19:57:03.138Z,11.26
2022-09-24T20:02:06.111Z,11.24
2022-09-24T20:07:09.188Z,11.21
2022-09-24T20:12:16.997Z,11.18
2022-09-24T20:17:19.931Z,11.17
2022-09-24T20:22:22.840Z,11.04
2022-09-24T20:27:44.826Z,11.06
2022-09-24T20:32:47.952Z,11.06
2022-09-24T20:37:50.916Z,11.03
2022-09-24T20:42:55.284Z,10.95
2022-09-24T20:47:58.266Z,10.85
2022-09-24T20:53:01.446Z,10.79
2022-09-24T20:58:05.833Z,10.86
2022-09-24T21:03:25.863Z,10.75
2022-09-24T21:08:32.792Z,10.58
2022-09-24T21:13:41.177Z,10.62
2022-09-24T21:18:45.082Z,10.58
2022-09-24T21:23:49.745Z,10.64
2022-09-24T21:28:55.652Z,10.58
2022-09-24T21:33:59.113Z,10.58
2022-09-24T21:39:03.817Z,10.59
2022-09-24T21:44:10.227Z,10.46
2022-09-24T21:49:13.807Z,10.51
2022-09-24T21:54:18.886Z,10.21
2022-09-24T21:59:40.931Z,10.22
2022-09-24T22:04:44.411Z,10.21
2022-09-24T22:09:47.566Z,10.18
2022-09-24T22:14:52.376Z,9.92
2022-09-24T22:19:55.399Z,9.91
2022-09-24T22:24:58.343Z,9.89
2022-09-24T22:30:02.637Z,9.88
2022-09-24T22:35:23.849Z,9.76
2022-09-24T22:40:26.850Z,9.68
2022-09-24T22:45:31.212Z,9.71
2022-09-24T22:50:34.184Z,9.53
2022-09-24T22:55:37.097Z,9.44
2022-09-24T23:00:41.508Z,9.50
2022-09-24T23:05:45.275Z,9.57
2022-09-24T23:10:48.186Z,9.47
2022-09-24T23:15:52.516Z,9.41
2022-09-24T23:20:55.425Z,9.44
2022-09-24T23:26:05.020Z,9.38
2022-09-24T23:31:11.994Z,9.36
2022-09-24T23:36:16.373Z,9.29
2022-09-24T23:41:19.433Z,9.26
2022-09-24T23:46:23.881Z,9.10
2022-09-24T23:51:27.046Z,9.05
2022-09-24T23:56:30.026Z,9.01
